sensor_id;sensor_type;location;lat;lon;timestamp;pressure;altitude;pressure_sealevel;temperature;humidity
64683;BME280;51107;47.652;19.016;2022-10-16T00:01:45;100381.06;;;13.81;85.86
64683;BME280;51107;47.652;19.016;2022-10-16T00:04:14;100379.09;;;13.75;86.75
64683;BME280;51107;47.652;19.016;2022-10-16T00:06:42;100372.56;;;13.79;81.48
64683;BME280;51107;47.652;19.016;2022-10-16T00:09:10;100373.06;;;13.83;82.21
64683;BME280;51107;47.652;19.016;2022-10-16T00:11:39;100379.94;;;13.84;83.00
64683;BME280;51107;47.652;19.016;2022-10-16T00:14:11;100377.16;;;13.85;83.25
64683;BME280;51107;47.652;19.016;2022-10-16T00:16:41;100384.69;;;13.80;82.29
64683;BME280;51107;47.652;19.016;2022-10-16T00:19:11;100384.00;;;13.78;80.55
64683;BME280;51107;47.652;19.016;2022-10-16T00:21:40;100388.94;;;13.81;81.04
64683;BME280;51107;47.652;19.016;2022-10-16T00:24:09;100400.56;;;13.87;81.23
64683;BME280;51107;47.652;19.016;2022-10-16T00:26:39;100396.19;;;13.87;78.21
64683;BME280;51107;47.652;19.016;2022-10-16T00:29:07;100393.56;;;13.87;80.84
64683;BME280;51107;47.652;19.016;2022-10-16T00:31:36;100392.56;;;13.88;79.41
64683;BME280;51107;47.652;19.016;2022-10-16T00:34:04;100407.63;;;13.86;78.96
64683;BME280;51107;47.652;19.016;2022-10-16T00:36:32;100398.78;;;13.87;78.58
64683;BME280;51107;47.652;19.016;2022-10-16T00:39:00;100396.34;;;13.86;78.77
64683;BME280;51107;47.652;19.016;2022-10-16T00:41:31;100399.44;;;13.89;78.34
64683;BME280;51107;47.652;19.016;2022-10-16T00:44:02;100392.56;;;13.88;79.49
64683;BME280;51107;47.652;19.016;2022-10-16T00:46:37;100390.63;;;13.90;81.00
64683;BME280;51107;47.652;19.016;2022-10-16T00:49:14;100396.59;;;13.74;80.95
64683;BME280;51107;47.652;19.016;2022-10-16T00:51:52;100400.38;;;13.72;82.24
64683;BME280;51107;47.652;19.016;2022-10-16T00:54:24;100407.53;;;13.70;82.13
64683;BME280;51107;47.652;19.016;2022-10-16T00:56:54;100411.75;;;13.63;82.35
64683;BME280;51107;47.652;19.016;2022-10-16T00:59:28;100411.38;;;13.57;82.46
64683;BME280;51107;47.652;19.016;2022-10-16T01:01:57;100408.94;;;13.56;83.28
64683;BME280;51107;47.652;19.016;2022-10-16T01:04:34;100413.81;;;13.33;84.32
64683;BME280;51107;47.652;19.016;2022-10-16T01:07:20;100412.78;;;13.25;84.82
64683;BME280;51107;47.652;19.016;2022-10-16T01:10:02;100417.66;;;13.20;85.68
64683;BME280;51107;47.652;19.016;2022-10-16T01:12:55;100412.41;;;13.20;85.61
64683;BME280;51107;47.652;19.016;2022-10-16T01:18:14;100417.91;;;13.09;84.47
64683;BME280;51107;47.652;19.016;2022-10-16T01:20:51;100423.72;;;13.03;84.89
64683;BME280;51107;47.652;19.016;2022-10-16T01:26:09;100430.53;;;12.96;84.69
64683;BME280;51107;47.652;19.016;2022-10-16T01:28:52;100433.97;;;12.96;86.48
64683;BME280;51107;47.652;19.016;2022-10-16T01:31:26;100429.87;;;12.94;86.56
64683;BME280;51107;47.652;19.016;2022-10-16T01:37:41;100435.69;;;12.87;86.88
64683;BME280;51107;47.652;19.016;2022-10-16T01:40:14;100429.63;;;12.69;87.96
64683;BME280;51107;47.652;19.016;2022-10-16T01:42:49;100433.66;;;12.63;88.42
64683;BME280;51107;47.652;19.016;2022-10-16T01:45:19;100436.03;;;12.56;88.29
64683;BME280;51107;47.652;19.016;2022-10-16T01:47:49;100434.38;;;12.55;88.55
64683;BME280;51107;47.652;19.016;2022-10-16T01:50:19;100437.81;;;12.56;87.92
64683;BME280;51107;47.652;19.016;2022-10-16T01:52:51;100438.97;;;12.44;88.08
64683;BME280;51107;47.652;19.016;2022-10-16T01:55:27;100444.19;;;12.44;87.81
64683;BME280;51107;47.652;19.016;2022-10-16T01:57:59;100439.97;;;12.43;88.07
64683;BME280;51107;47.652;19.016;2022-10-16T02:00:29;100447.75;;;12.25;89.07
64683;BME280;51107;47.652;19.016;2022-10-16T02:03:01;100451.22;;;12.15;89.37
64683;BME280;51107;47.652;19.016;2022-10-16T02:05:34;100446.31;;;12.12;89.95
64683;BME280;51107;47.652;19.016;2022-10-16T02:08:05;100443.81;;;12.11;89.71
64683;BME280;51107;47.652;19.016;2022-10-16T02:10:35;100449.06;;;12.01;90.40
64683;BME280;51107;47.652;19.016;2022-10-16T02:13:46;100438.50;;;11.93;90.67
64683;BME280;51107;47.652;19.016;2022-10-16T02:16:06;100445.41;;;11.84;91.09
64683;BME280;51107;47.652;19.016;2022-10-16T02:18:34;100451.72;;;11.81;91.50
64683;BME280;51107;47.652;19.016;2022-10-16T02:21:19;100451.59;;;11.73;91.80
64683;BME280;51107;47.652;19.016;2022-10-16T02:26:38;100446.72;;;11.50;93.66
64683;BME280;51107;47.652;19.016;2022-10-16T02:29:12;100456.03;;;11.43;94.48
64683;BME280;51107;47.652;19.016;2022-10-16T02:31:45;100453.06;;;11.38;94.55
64683;BME280;51107;47.652;19.016;2022-10-16T02:34:16;100452.78;;;11.41;95.13
64683;BME280;51107;47.652;19.016;2022-10-16T02:36:47;100456.63;;;11.37;94.94
64683;BME280;51107;47.652;19.016;2022-10-16T02:39:18;100454.69;;;11.39;94.96
64683;BME280;51107;47.652;19.016;2022-10-16T02:41:47;100469.66;;;11.37;95.06
64683;BME280;51107;47.652;19.016;2022-10-16T02:44:15;100460.31;;;11.44;94.40
64683;BME280;51107;47.652;19.016;2022-10-16T02:46:44;100467.72;;;11.39;94.20
64683;BME280;51107;47.652;19.016;2022-10-16T02:49:12;100471.06;;;11.12;95.37
64683;BME280;51107;47.652;19.016;2022-10-16T02:51:40;100467.22;;;11.16;96.44
64683;BME280;51107;47.652;19.016;2022-10-16T02:54:09;100463.59;;;11.27;95.21
64683;BME280;51107;47.652;19.016;2022-10-16T02:56:37;100468.44;;;11.21;95.75
64683;BME280;51107;47.652;19.016;2022-10-16T02:59:05;100467.87;;;11.28;95.25
64683;BME280;51107;47.652;19.016;2022-10-16T03:01:33;100476.66;;;11.07;95.62
64683;BME280;51107;47.652;19.016;2022-10-16T03:04:03;100476.12;;;10.94;96.93
64683;BME280;51107;47.652;19.016;2022-10-16T03:06:31;100476.25;;;11.02;96.48
64683;BME280;51107;47.652;19.016;2022-10-16T03:09:00;100482.44;;;11.01;96.10
64683;BME280;51107;47.652;19.016;2022-10-16T03:11:28;100484.87;;;10.93;96.74
64683;BME280;51107;47.652;19.016;2022-10-16T03:13:56;100488.31;;;11.03;96.90
64683;BME280;51107;47.652;19.016;2022-10-16T03:16:24;100493.38;;;11.04;96.00
64683;BME280;51107;47.652;19.016;2022-10-16T03:18:52;100490.63;;;10.86;96.56
64683;BME280;51107;47.652;19.016;2022-10-16T03:21:21;100503.22;;;10.71;97.83
64683;BME280;51107;47.652;19.016;2022-10-16T03:23:49;100498.84;;;10.82;98.19
64683;BME280;51107;47.652;19.016;2022-10-16T03:26:17;100493.94;;;10.88;96.74
64683;BME280;51107;47.652;19.016;2022-10-16T03:28:45;100489.53;;;10.79;95.86
64683;BME280;51107;47.652;19.016;2022-10-16T03:31:14;100495.97;;;10.75;96.31
64683;BME280;51107;47.652;19.016;2022-10-16T03:33:42;100498.53;;;10.56;96.70
64683;BME280;51107;47.652;19.016;2022-10-16T03:36:10;100510.75;;;10.34;98.82
64683;BME280;51107;47.652;19.016;2022-10-16T03:38:39;100504.41;;;10.58;98.66
64683;BME280;51107;47.652;19.016;2022-10-16T03:41:07;100503.28;;;10.50;96.52
64683;BME280;51107;47.652;19.016;2022-10-16T03:43:35;100512.72;;;10.42;97.01
64683;BME280;51107;47.652;19.016;2022-10-16T03:46:04;100507.41;;;10.53;96.73
64683;BME280;51107;47.652;19.016;2022-10-16T03:48:32;100505.53;;;10.34;96.86
64683;BME280;51107;47.652;19.016;2022-10-16T03:51:01;100508.03;;;10.35;96.79
64683;BME280;51107;47.652;19.016;2022-10-16T03:53:29;100500.88;;;10.28;97.94
64683;BME280;51107;47.652;19.016;2022-10-16T03:55:57;100497.28;;;10.29;97.83
64683;BME280;51107;47.652;19.016;2022-10-16T03:58:26;100501.53;;;10.30;98.54
64683;BME280;51107;47.652;19.016;2022-10-16T04:00:57;100513.62;;;10.31;98.30
64683;BME280;51107;47.652;19.016;2022-10-16T04:03:26;100513.34;;;10.34;97.87
64683;BME280;51107;47.652;19.016;2022-10-16T04:05:54;100514.75;;;10.38;97.50
64683;BME280;51107;47.652;19.016;2022-10-16T04:08:22;100512.72;;;10.42;97.32
64683;BME280;51107;47.652;19.016;2022-10-16T04:10:50;100521.94;;;10.25;95.83
64683;BME280;51107;47.652;19.016;2022-10-16T04:13:19;100522.91;;;10.02;96.64
64683;BME280;51107;47.652;19.016;2022-10-16T04:15:52;100521.16;;;9.82;99.27
64683;BME280;51107;47.652;19.016;2022-10-16T04:18:20;100524.69;;;9.60;100.00
64683;BME280;51107;47.652;19.016;2022-10-16T04:20:49;100527.06;;;9.84;100.00
64683;BME280;51107;47.652;19.016;2022-10-16T04:23:17;100528.34;;;9.90;100.00
64683;BME280;51107;47.652;19.016;2022-10-16T04:25:45;100519.59;;;9.91;100.00
64683;BME280;51107;47.652;19.016;2022-10-16T04:28:14;100537.53;;;9.94;100.00
64683;BME280;51107;47.652;19.016;2022-10-16T04:30:43;100536.31;;;9.98;99.22
64683;BME280;51107;47.652;19.016;2022-10-16T04:33:11;100533.28;;;9.93;99.58
64683;BME280;51107;47.652;19.016;2022-10-16T04:35:40;100534.41;;;10.00;99.13
64683;BME280;51107;47.652;19.016;2022-10-16T04:38:09;100539.50;;;9.80;99.22
64683;BME280;51107;47.652;19.016;2022-10-16T04:40:37;100540.41;;;9.91;99.52
64683;BME280;51107;47.652;19.016;2022-10-16T04:43:05;100546.09;;;9.84;99.95
64683;BME280;51107;47.652;19.016;2022-10-16T04:45:34;100546.75;;;9.77;98.42
64683;BME280;51107;47.652;19.016;2022-10-16T04:48:02;100540.62;;;9.45;100.00
64683;BME280;51107;47.652;19.016;2022-10-16T04:50:30;100553.31;;;9.60;100.00
64683;BME280;51107;47.652;19.016;2022-10-16T04:53:01;100534.12;;;9.40;99.22
64683;BME280;51107;47.652;19.016;2022-10-16T04:55:29;100550.09;;;9.35;100.00
64683;BME280;51107;47.652;19.016;2022-10-16T04:57:57;100540.09;;;9.51;100.00
64683;BME280;51107;47.652;19.016;2022-10-16T05:00:26;100548.16;;;9.16;100.00
64683;BME280;51107;47.652;19.016;2022-10-16T05:02:54;100540.28;;;9.39;100.00
64683;BME280;51107;47.652;19.016;2022-10-16T05:05:22;100543.69;;;9.50;100.00
64683;BME280;51107;47.652;19.016;2022-10-16T05:07:51;100555.72;;;9.51;100.00
64683;BME280;51107;47.652;19.016;2022-10-16T05:10:19;100554.03;;;9.62;99.79
64683;BME280;51107;47.652;19.016;2022-10-16T05:12:48;100552.25;;;9.62;100.00
64683;BME280;51107;47.652;19.016;2022-10-16T05:15:16;100542.28;;;9.67;100.00
64683;BME280;51107;47.652;19.016;2022-10-16T05:17:44;100550.72;;;9.60;99.53
64683;BME280;51107;47.652;19.016;2022-10-16T05:20:12;100555.87;;;9.39;99.49
64683;BME280;51107;47.652;19.016;2022-10-16T05:22:41;100557.06;;;9.34;99.51
64683;BME280;51107;47.652;19.016;2022-10-16T05:25:09;100561.56;;;9.44;99.13
64683;BME280;51107;47.652;19.016;2022-10-16T05:27:37;100569.88;;;9.26;100.00
64683;BME280;51107;47.652;19.016;2022-10-16T05:30:06;100574.03;;;9.06;100.00
64683;BME280;51107;47.652;19.016;2022-10-16T05:32:48;100579.13;;;9.08;100.00
64683;BME280;51107;47.652;19.016;2022-10-16T05:35:20;100579.13;;;9.08;100.00
64683;BME280;51107;47.652;19.016;2022-10-16T05:37:49;100571.19;;;9.21;100.00
64683;BME280;51107;47.652;19.016;2022-10-16T05:40:17;100578.38;;;9.17;100.00
64683;BME280;51107;47.652;19.016;2022-10-16T05:42:45;100579.34;;;9.16;100.00
64683;BME280;51107;47.652;19.016;2022-10-16T05:45:13;100590.19;;;9.21;100.00
64683;BME280;51107;47.652;19.016;2022-10-16T05:47:42;100587.25;;;9.26;100.00
64683;BME280;51107;47.652;19.016;2022-10-16T05:50:13;100583.34;;;9.31;100.00
64683;BME280;51107;47.652;19.016;2022-10-16T05:52:41;100591.22;;;9.41;100.00
64683;BME280;51107;47.652;19.016;2022-10-16T05:55:09;100583.13;;;9.56;100.00
64683;BME280;51107;47.652;19.016;2022-10-16T05:57:37;100588.31;;;9.56;100.00
64683;BME280;51107;47.652;19.016;2022-10-16T06:00:06;100600.41;;;9.78;100.00
64683;BME280;51107;47.652;19.016;2022-10-16T06:02:39;100601.59;;;9.85;100.00
64683;BME280;51107;47.652;19.016;2022-10-16T06:05:07;100605.00;;;9.85;99.81
64683;BME280;51107;47.652;19.016;2022-10-16T06:07:36;100605.41;;;10.02;100.00
64683;BME280;51107;47.652;19.016;2022-10-16T06:10:04;100616.53;;;10.25;100.00
64683;BME280;51107;47.652;19.016;2022-10-16T06:12:33;100610.72;;;10.22;99.83
64683;BME280;51107;47.652;19.016;2022-10-16T06:15:01;100615.78;;;10.34;99.36
64683;BME280;51107;47.652;19.016;2022-10-16T06:17:29;100605.34;;;10.56;99.76
64683;BME280;51107;47.652;19.016;2022-10-16T06:19:58;100608.56;;;10.69;99.00
64683;BME280;51107;47.652;19.016;2022-10-16T06:22:26;100620.13;;;10.86;98.30
64683;BME280;51107;47.652;19.016;2022-10-16T06:24:54;100611.91;;;10.91;97.27
64683;BME280;51107;47.652;19.016;2022-10-16T06:27:24;100618.50;;;10.95;95.64
64683;BME280;51107;47.652;19.016;2022-10-16T06:29:54;100624.72;;;10.94;95.47
64683;BME280;51107;47.652;19.016;2022-10-16T06:32:22;100626.25;;;11.06;96.29
64683;BME280;51107;47.652;19.016;2022-10-16T06:34:51;100637.97;;;11.21;95.62
64683;BME280;51107;47.652;19.016;2022-10-16T06:37:19;100644.94;;;11.21;94.52
64683;BME280;51107;47.652;19.016;2022-10-16T06:39:47;100644.44;;;11.27;92.42
64683;BME280;51107;47.652;19.016;2022-10-16T06:42:15;100654.88;;;11.37;91.55
64683;BME280;51107;47.652;19.016;2022-10-16T06:44:44;100652.72;;;11.52;87.57
64683;BME280;51107;47.652;19.016;2022-10-16T06:47:12;100657.94;;;11.71;90.43
64683;BME280;51107;47.652;19.016;2022-10-16T06:49:40;100651.78;;;11.82;87.38
64683;BME280;51107;47.652;19.016;2022-10-16T06:52:08;100652.19;;;11.87;86.44
64683;BME280;51107;47.652;19.016;2022-10-16T06:54:37;100659.91;;;11.99;86.69
64683;BME280;51107;47.652;19.016;2022-10-16T06:57:09;100657.72;;;12.04;84.70
64683;BME280;51107;47.652;19.016;2022-10-16T06:59:37;100665.94;;;12.09;83.75
64683;BME280;51107;47.652;19.016;2022-10-16T07:02:06;100670.34;;;12.09;83.23
64683;BME280;51107;47.652;19.016;2022-10-16T07:04:35;100679.44;;;12.04;82.86
64683;BME280;51107;47.652;19.016;2022-10-16T07:07:03;100681.91;;;12.16;82.82
64683;BME280;51107;47.652;19.016;2022-10-16T07:09:36;100676.41;;;12.29;82.06
64683;BME280;51107;47.652;19.016;2022-10-16T07:12:04;100692.59;;;12.32;80.66
64683;BME280;51107;47.652;19.016;2022-10-16T07:14:32;100693.56;;;12.41;80.68
64683;BME280;51107;47.652;19.016;2022-10-16T07:17:01;100692.44;;;12.44;80.15
64683;BME280;51107;47.652;19.016;2022-10-16T07:19:29;100702.38;;;12.40;79.20
64683;BME280;51107;47.652;19.016;2022-10-16T07:22:01;100696.19;;;12.51;79.10
64683;BME280;51107;47.652;19.016;2022-10-16T07:24:30;100711.66;;;12.72;79.64
64683;BME280;51107;47.652;19.016;2022-10-16T07:26:59;100716.75;;;12.73;78.18
64683;BME280;51107;47.652;19.016;2022-10-16T07:29:28;100720.03;;;12.85;78.64
64683;BME280;51107;47.652;19.016;2022-10-16T07:31:56;100710.91;;;12.99;78.24
64683;BME280;51107;47.652;19.016;2022-10-16T07:34:24;100710.47;;;13.04;78.05
64683;BME280;51107;47.652;19.016;2022-10-16T07:36:54;100716.56;;;13.32;77.06
64683;BME280;51107;47.652;19.016;2022-10-16T07:39:22;100716.41;;;13.62;76.22
64683;BME280;51107;47.652;19.016;2022-10-16T07:41:50;100718.09;;;13.81;74.59
64683;BME280;51107;47.652;19.016;2022-10-16T07:44:18;100715.69;;;13.87;75.21
64683;BME280;51107;47.652;19.016;2022-10-16T07:46:46;100720.19;;;14.31;72.46
64683;BME280;51107;47.652;19.016;2022-10-16T07:49:14;100716.53;;;14.50;71.80
64683;BME280;51107;47.652;19.016;2022-10-16T07:51:43;100717.81;;;14.46;70.20
64683;BME280;51107;47.652;19.016;2022-10-16T07:54:11;100712.84;;;14.61;70.83
64683;BME280;51107;47.652;19.016;2022-10-16T07:56:39;100727.47;;;14.64;70.38
64683;BME280;51107;47.652;19.016;2022-10-16T07:59:11;100723.44;;;15.04;68.69
64683;BME280;51107;47.652;19.016;2022-10-16T08:01:39;100723.38;;;15.22;68.46
64683;BME280;51107;47.652;19.016;2022-10-16T08:04:08;100731.56;;;15.70;67.28
64683;BME280;51107;47.652;19.016;2022-10-16T08:06:38;100729.00;;;15.86;64.96
64683;BME280;51107;47.652;19.016;2022-10-16T08:09:07;100741.53;;;15.92;63.41
64683;BME280;51107;47.652;19.016;2022-10-16T08:11:36;100735.09;;;15.95;63.77
64683;BME280;51107;47.652;19.016;2022-10-16T08:14:04;100740.88;;;16.23;65.27
64683;BME280;51107;47.652;19.016;2022-10-16T08:16:32;100739.50;;;16.85;62.90
64683;BME280;51107;47.652;19.016;2022-10-16T08:19:03;100747.09;;;16.63;61.45
64683;BME280;51107;47.652;19.016;2022-10-16T08:21:31;100754.25;;;17.27;60.70
64683;BME280;51107;47.652;19.016;2022-10-16T08:23:59;100752.78;;;17.17;58.27
64683;BME280;51107;47.652;19.016;2022-10-16T08:26:28;100755.84;;;17.68;58.98
64683;BME280;51107;47.652;19.016;2022-10-16T08:28:56;100756.09;;;17.81;58.03
64683;BME280;51107;47.652;19.016;2022-10-16T08:31:25;100756.53;;;17.93;58.95
64683;BME280;51107;47.652;19.016;2022-10-16T08:33:59;100753.53;;;18.05;56.94
64683;BME280;51107;47.652;19.016;2022-10-16T08:36:27;100759.97;;;18.25;55.92
64683;BME280;51107;47.652;19.016;2022-10-16T08:38:56;100759.03;;;18.56;54.40
64683;BME280;51107;47.652;19.016;2022-10-16T08:47:17;100765.03;;;18.50;56.77
64683;BME280;51107;47.652;19.016;2022-10-16T08:49:59;100765.50;;;18.54;55.15
64683;BME280;51107;47.652;19.016;2022-10-16T08:52:32;100776.59;;;19.17;54.92
64683;BME280;51107;47.652;19.016;2022-10-16T08:55:03;100773.28;;;19.45;53.72
64683;BME280;51107;47.652;19.016;2022-10-16T08:57:32;100778.16;;;19.26;53.27
64683;BME280;51107;47.652;19.016;2022-10-16T09:00:09;100777.84;;;19.51;54.67
64683;BME280;51107;47.652;19.016;2022-10-16T09:02:58;100780.72;;;19.86;51.10
64683;BME280;51107;47.652;19.016;2022-10-16T09:14:34;100769.59;;;19.91;50.17
64683;BME280;51107;47.652;19.016;2022-10-16T09:20:00;100773.53;;;19.80;50.80
64683;BME280;51107;47.652;19.016;2022-10-16T09:22:35;100780.38;;;19.89;54.72
64683;BME280;51107;47.652;19.016;2022-10-16T09:25:11;100768.38;;;20.36;50.99
64683;BME280;51107;47.652;19.016;2022-10-16T09:27:41;100769.53;;;20.27;50.49
64683;BME280;51107;47.652;19.016;2022-10-16T09:32:42;100771.56;;;20.75;48.90
64683;BME280;51107;47.652;19.016;2022-10-16T09:35:20;100772.34;;;20.47;48.76
64683;BME280;51107;47.652;19.016;2022-10-16T09:37:51;100781.28;;;20.68;49.11
64683;BME280;51107;47.652;19.016;2022-10-16T09:40:42;100782.00;;;20.83;48.83
64683;BME280;51107;47.652;19.016;2022-10-16T09:46:32;100796.75;;;20.93;48.92
64683;BME280;51107;47.652;19.016;2022-10-16T09:49:03;100787.41;;;20.97;47.85
64683;BME280;51107;47.652;19.016;2022-10-16T09:51:35;100785.34;;;20.99;47.45
64683;BME280;51107;47.652;19.016;2022-10-16T09:56:38;100796.00;;;21.47;49.07
64683;BME280;51107;47.652;19.016;2022-10-16T09:59:12;100799.47;;;21.06;47.46
64683;BME280;51107;47.652;19.016;2022-10-16T10:01:52;100799.00;;;20.96;47.73
64683;BME280;51107;47.652;19.016;2022-10-16T10:04:24;100795.31;;;21.32;48.15
64683;BME280;51107;47.652;19.016;2022-10-16T10:06:55;100801.03;;;20.94;47.44
64683;BME280;51107;47.652;19.016;2022-10-16T10:09:32;100787.81;;;21.00;49.41
64683;BME280;51107;47.652;19.016;2022-10-16T10:12:04;100782.59;;;21.55;47.99
64683;BME280;51107;47.652;19.016;2022-10-16T10:14:37;100773.31;;;21.80;46.88
64683;BME280;51107;47.652;19.016;2022-10-16T10:25:00;100767.94;;;21.60;48.25
64683;BME280;51107;47.652;19.016;2022-10-16T10:30:35;100776.94;;;21.24;48.12
64683;BME280;51107;47.652;19.016;2022-10-16T10:36:27;100774.19;;;21.45;47.92
64683;BME280;51107;47.652;19.016;2022-10-16T10:38:59;100776.13;;;21.23;48.82
64683;BME280;51107;47.652;19.016;2022-10-16T10:52:38;100779.84;;;21.35;47.58
64683;BME280;51107;47.652;19.016;2022-10-16T10:55:27;100781.22;;;21.66;47.31
64683;BME280;51107;47.652;19.016;2022-10-16T11:00:46;100775.75;;;21.33;48.98
64683;BME280;51107;47.652;19.016;2022-10-16T11:03:31;100783.38;;;21.08;48.74
64683;BME280;51107;47.652;19.016;2022-10-16T11:06:17;100766.31;;;20.82;48.17
64683;BME280;51107;47.652;19.016;2022-10-16T11:11:46;100759.91;;;20.69;51.04
64683;BME280;51107;47.652;19.016;2022-10-16T11:14:25;100752.47;;;20.58;49.03
64683;BME280;51107;47.652;19.016;2022-10-16T11:16:58;100749.37;;;20.76;49.13
64683;BME280;51107;47.652;19.016;2022-10-16T11:19:35;100754.31;;;20.86;49.96
64683;BME280;51107;47.652;19.016;2022-10-16T11:22:23;100754.97;;;20.66;49.87
64683;BME280;51107;47.652;19.016;2022-10-16T11:25:14;100739.56;;;20.20;50.47
64683;BME280;51107;47.652;19.016;2022-10-16T11:27:53;100750.03;;;20.85;51.62
64683;BME280;51107;47.652;19.016;2022-10-16T11:30:25;100750.16;;;20.48;50.58
64683;BME280;51107;47.652;19.016;2022-10-16T11:33:14;100747.34;;;20.28;50.00
64683;BME280;51107;47.652;19.016;2022-10-16T11:41:22;100733.28;;;19.63;51.67
64683;BME280;51107;47.652;19.016;2022-10-16T11:44:31;100732.78;;;19.89;52.41
64683;BME280;51107;47.652;19.016;2022-10-16T11:47:27;100734.31;;;19.47;53.31
64683;BME280;51107;47.652;19.016;2022-10-16T11:50:36;100738.03;;;19.52;51.48
64683;BME280;51107;47.652;19.016;2022-10-16T11:53:22;100742.84;;;19.49;52.13
64683;BME280;51107;47.652;19.016;2022-10-16T11:55:51;100738.31;;;19.58;51.74
64683;BME280;51107;47.652;19.016;2022-10-16T12:06:40;100737.09;;;19.09;52.97
64683;BME280;51107;47.652;19.016;2022-10-16T12:09:18;100718.59;;;19.24;51.88
64683;BME280;51107;47.652;19.016;2022-10-16T12:11:48;100732.06;;;19.29;52.62
64683;BME280;51107;47.652;19.016;2022-10-16T12:17:24;100727.97;;;19.11;53.32
64683;BME280;51107;47.652;19.016;2022-10-16T12:20:22;100727.25;;;19.03;53.97
64683;BME280;51107;47.652;19.016;2022-10-16T12:22:58;100726.88;;;19.06;53.79
64683;BME280;51107;47.652;19.016;2022-10-16T12:28:01;100722.84;;;19.40;51.53
64683;BME280;51107;47.652;19.016;2022-10-16T12:30:34;100712.94;;;19.27;51.39
64683;BME280;51107;47.652;19.016;2022-10-16T12:33:05;100715.37;;;19.28;51.97
64683;BME280;51107;47.652;19.016;2022-10-16T12:35:43;100718.59;;;19.24;51.37
64683;BME280;51107;47.652;19.016;2022-10-16T12:38:18;100717.12;;;19.21;51.89
64683;BME280;51107;47.652;19.016;2022-10-16T12:41:08;100720.22;;;19.25;51.52
64683;BME280;51107;47.652;19.016;2022-10-16T12:43:40;100716.22;;;19.29;52.41
64683;BME280;51107;47.652;19.016;2022-10-16T12:48:40;100713.22;;;19.17;51.73
64683;BME280;51107;47.652;19.016;2022-10-16T12:54:01;100728.44;;;19.30;51.81
64683;BME280;51107;47.652;19.016;2022-10-16T13:10:35;100727.59;;;19.29;51.85
64683;BME280;51107;47.652;19.016;2022-10-16T13:19:19;100735.87;;;19.41;51.58
64683;BME280;51107;47.652;19.016;2022-10-16T13:30:28;100725.41;;;19.33;50.87
64683;BME280;51107;47.652;19.016;2022-10-16T13:33:04;100728.13;;;19.40;50.15
64683;BME280;51107;47.652;19.016;2022-10-16T13:35:35;100732.94;;;19.51;49.75
64683;BME280;51107;47.652;19.016;2022-10-16T13:38:15;100725.72;;;19.45;49.68
64683;BME280;51107;47.652;19.016;2022-10-16T13:43:50;100727.00;;;19.49;51.43
64683;BME280;51107;47.652;19.016;2022-10-16T13:46:21;100727.09;;;19.41;50.41
64683;BME280;51107;47.652;19.016;2022-10-16T13:49:01;100727.94;;;19.41;51.19
64683;BME280;51107;47.652;19.016;2022-10-16T13:51:31;100731.13;;;19.37;51.23
64683;BME280;51107;47.652;19.016;2022-10-16T13:54:00;100734.72;;;19.29;50.25
64683;BME280;51107;47.652;19.016;2022-10-16T13:56:30;100734.91;;;19.27;49.78
64683;BME280;51107;47.652;19.016;2022-10-16T13:59:07;100734.44;;;19.24;51.38
64683;BME280;51107;47.652;19.016;2022-10-16T14:01:51;100733.81;;;19.22;50.83
64683;BME280;51107;47.652;19.016;2022-10-16T14:04:22;100523.19;;;17.82;52.47
64683;BME280;51107;47.652;19.016;2022-10-16T14:06:51;100733.72;;;19.15;52.95
64683;BME280;51107;47.652;19.016;2022-10-16T14:09:30;100735.25;;;19.24;51.71
64683;BME280;51107;47.652;19.016;2022-10-16T14:12:08;100740.47;;;19.17;51.93
64683;BME280;51107;47.652;19.016;2022-10-16T14:14:43;100732.78;;;19.23;52.80
64683;BME280;51107;47.652;19.016;2022-10-16T14:17:15;100730.34;;;19.21;51.72
64683;BME280;51107;47.652;19.016;2022-10-16T14:19:47;100733.88;;;19.28;51.28
64683;BME280;51107;47.652;19.016;2022-10-16T14:22:34;100730.59;;;19.26;51.45
64683;BME280;51107;47.652;19.016;2022-10-16T14:38:39;100740.16;;;18.82;54.18
64683;BME280;51107;47.652;19.016;2022-10-16T14:41:08;100746.25;;;18.83;56.04
64683;BME280;51107;47.652;19.016;2022-10-16T14:43:39;100748.34;;;18.73;56.01
64683;BME280;51107;47.652;19.016;2022-10-16T14:46:19;100747.41;;;18.65;56.15
64683;BME280;51107;47.652;19.016;2022-10-16T14:49:00;100747.78;;;18.62;55.61
64683;BME280;51107;47.652;19.016;2022-10-16T14:51:29;100753.47;;;18.51;58.07
64683;BME280;51107;47.652;19.016;2022-10-16T14:53:58;100744.75;;;18.50;56.94
64683;BME280;51107;47.652;19.016;2022-10-16T14:56:34;100741.56;;;18.40;57.95
64683;BME280;51107;47.652;19.016;2022-10-16T14:59:04;100744.53;;;18.37;59.41
64683;BME280;51107;47.652;19.016;2022-10-16T15:01:32;100747.78;;;18.24;59.35
64683;BME280;51107;47.652;19.016;2022-10-16T15:04:00;100751.09;;;18.18;60.76
64683;BME280;51107;47.652;19.016;2022-10-16T15:06:29;100745.13;;;18.01;61.14
64683;BME280;51107;47.652;19.016;2022-10-16T15:08:57;100749.66;;;17.92;61.97
64683;BME280;51107;47.652;19.016;2022-10-16T15:11:25;100752.00;;;17.79;62.45
64683;BME280;51107;47.652;19.016;2022-10-16T15:13:54;100749.50;;;17.54;64.36
64683;BME280;51107;47.652;19.016;2022-10-16T15:16:22;100748.91;;;17.44;64.79
64683;BME280;51107;47.652;19.016;2022-10-16T15:18:50;100762.78;;;17.29;63.55
64683;BME280;51107;47.652;19.016;2022-10-16T15:21:30;100760.53;;;17.10;66.49
64683;BME280;51107;47.652;19.016;2022-10-16T15:24:00;100763.53;;;17.07;66.94